sensor_id;sensor_type;location;lat;lon;timestamp;P1;durP1;ratioP1;P2;durP2;ratioP2
53269;SDS011;39159;45.634;9.420;2023-12-22T00:01:18;6.68;;;4.20;;
53269;SDS011;39159;45.634;9.420;2023-12-22T00:03:44;11.00;;;4.95;;
53269;SDS011;39159;45.634;9.420;2023-12-22T00:06:11;7.28;;;5.10;;
53269;SDS011;39159;45.634;9.420;2023-12-22T00:08:37;7.78;;;4.93;;
53269;SDS011;39159;45.634;9.420;2023-12-22T00:11:03;7.10;;;4.75;;
53269;SDS011;39159;45.634;9.420;2023-12-22T00:13:28;8.95;;;4.88;;
53269;SDS011;39159;45.634;9.420;2023-12-22T00:15:54;6.72;;;4.80;;
53269;SDS011;39159;45.634;9.420;2023-12-22T00:18:19;7.38;;;4.90;;
53269;SDS011;39159;45.634;9.420;2023-12-22T00:20:44;8.57;;;4.90;;
53269;SDS011;39159;45.634;9.420;2023-12-22T00:23:10;8.25;;;4.50;;
53269;SDS011;39159;45.634;9.420;2023-12-22T00:25:35;6.18;;;4.45;;
53269;SDS011;39159;45.634;9.420;2023-12-22T00:28:00;6.40;;;4.45;;
53269;SDS011;39159;45.634;9.420;2023-12-22T00:30:26;5.65;;;4.60;;
53269;SDS011;39159;45.634;9.420;2023-12-22T00:32:51;7.63;;;4.05;;
53269;SDS011;39159;45.634;9.420;2023-12-22T00:35:16;6.22;;;4.55;;
53269;SDS011;39159;45.634;9.420;2023-12-22T00:37:42;9.27;;;4.22;;
53269;SDS011;39159;45.634;9.420;2023-12-22T00:40:07;6.65;;;4.30;;
53269;SDS011;39159;45.634;9.420;2023-12-22T00:42:34;6.47;;;4.25;;
53269;SDS011;39159;45.634;9.420;2023-12-22T00:44:59;6.10;;;4.05;;
53269;SDS011;39159;45.634;9.420;2023-12-22T00:47:25;6.85;;;4.25;;
53269;SDS011;39159;45.634;9.420;2023-12-22T00:49:50;8.80;;;4.40;;
53269;SDS011;39159;45.634;9.420;2023-12-22T00:52:16;6.07;;;3.90;;
53269;SDS011;39159;45.634;9.420;2023-12-22T00:54:41;6.38;;;4.28;;
53269;SDS011;39159;45.634;9.420;2023-12-22T00:57:06;5.65;;;4.15;;
53269;SDS011;39159;45.634;9.420;2023-12-22T00:59:32;5.53;;;3.60;;
53269;SDS011;39159;45.634;9.420;2023-12-22T01:01:57;6.50;;;3.92;;
53269;SDS011;39159;45.634;9.420;2023-12-22T01:04:22;5.22;;;3.92;;
53269;SDS011;39159;45.634;9.420;2023-12-22T01:06:48;7.28;;;3.83;;
53269;SDS011;39159;45.634;9.420;2023-12-22T01:09:13;6.78;;;4.22;;
53269;SDS011;39159;45.634;9.420;2023-12-22T01:11:40;6.82;;;4.30;;
53269;SDS011;39159;45.634;9.420;2023-12-22T01:14:05;5.88;;;4.50;;
53269;SDS011;39159;45.634;9.420;2023-12-22T01:16:32;5.82;;;3.97;;
53269;SDS011;39159;45.634;9.420;2023-12-22T01:18:57;7.43;;;4.60;;
53269;SDS011;39159;45.634;9.420;2023-12-22T01:21:22;5.95;;;3.92;;
53269;SDS011;39159;45.634;9.420;2023-12-22T01:23:48;8.65;;;4.25;;
53269;SDS011;39159;45.634;9.420;2023-12-22T01:26:13;5.30;;;3.50;;
53269;SDS011;39159;45.634;9.420;2023-12-22T01:28:39;7.43;;;4.03;;
53269;SDS011;39159;45.634;9.420;2023-12-22T01:31:04;6.20;;;4.10;;
53269;SDS011;39159;45.634;9.420;2023-12-22T01:33:29;6.43;;;4.95;;
53269;SDS011;39159;45.634;9.420;2023-12-22T01:35:55;7.88;;;4.25;;
53269;SDS011;39159;45.634;9.420;2023-12-22T01:38:20;6.32;;;4.25;;
53269;SDS011;39159;45.634;9.420;2023-12-22T01:40:46;5.80;;;4.38;;
53269;SDS011;39159;45.634;9.420;2023-12-22T01:43:11;7.30;;;4.60;;
53269;SDS011;39159;45.634;9.420;2023-12-22T01:45:38;6.60;;;4.00;;
53269;SDS011;39159;45.634;9.420;2023-12-22T01:48:03;5.93;;;3.97;;
53269;SDS011;39159;45.634;9.420;2023-12-22T01:50:29;5.47;;;3.88;;
53269;SDS011;39159;45.634;9.420;2023-12-22T01:52:55;8.95;;;4.40;;
53269;SDS011;39159;45.634;9.420;2023-12-22T01:55:20;5.82;;;3.60;;
53269;SDS011;39159;45.634;9.420;2023-12-22T01:57:46;5.75;;;3.80;;
53269;SDS011;39159;45.634;9.420;2023-12-22T02:00:12;5.78;;;3.72;;
53269;SDS011;39159;45.634;9.420;2023-12-22T02:02:38;7.72;;;4.40;;
53269;SDS011;39159;45.634;9.420;2023-12-22T02:05:07;7.20;;;4.57;;
53269;SDS011;39159;45.634;9.420;2023-12-22T02:07:36;6.13;;;4.35;;
53269;SDS011;39159;45.634;9.420;2023-12-22T02:10:02;6.55;;;4.28;;
53269;SDS011;39159;45.634;9.420;2023-12-22T02:12:28;10.00;;;5.20;;
53269;SDS011;39159;45.634;9.420;2023-12-22T02:14:54;7.18;;;4.40;;
53269;SDS011;39159;45.634;9.420;2023-12-22T02:17:26;7.20;;;4.70;;
53269;SDS011;39159;45.634;9.420;2023-12-22T02:20:08;6.22;;;4.47;;
53269;SDS011;39159;45.634;9.420;2023-12-22T02:22:34;6.78;;;4.50;;
53269;SDS011;39159;45.634;9.420;2023-12-22T02:25:00;6.88;;;4.15;;
53269;SDS011;39159;45.634;9.420;2023-12-22T02:32:47;8.38;;;5.22;;
53269;SDS011;39159;45.634;9.420;2023-12-22T02:35:17;5.75;;;4.18;;
53269;SDS011;39159;45.634;9.420;2023-12-22T02:37:46;7.35;;;4.45;;
53269;SDS011;39159;45.634;9.420;2023-12-22T02:40:13;7.60;;;5.05;;
53269;SDS011;39159;45.634;9.420;2023-12-22T02:42:39;6.25;;;4.43;;
53269;SDS011;39159;45.634;9.420;2023-12-22T02:45:06;7.00;;;4.95;;
53269;SDS011;39159;45.634;9.420;2023-12-22T02:47:37;7.00;;;4.85;;
53269;SDS011;39159;45.634;9.420;2023-12-22T02:50:03;7.13;;;4.78;;
53269;SDS011;39159;45.634;9.420;2023-12-22T02:52:28;7.72;;;4.13;;
53269;SDS011;39159;45.634;9.420;2023-12-22T02:54:54;6.03;;;4.45;;
53269;SDS011;39159;45.634;9.420;2023-12-22T02:57:19;7.10;;;4.50;;
53269;SDS011;39159;45.634;9.420;2023-12-22T02:59:45;7.60;;;4.15;;
53269;SDS011;39159;45.634;9.420;2023-12-22T03:02:10;7.80;;;4.28;;
53269;SDS011;39159;45.634;9.420;2023-12-22T03:04:35;7.45;;;4.75;;
53269;SDS011;39159;45.634;9.420;2023-12-22T03:07:01;6.78;;;4.32;;
53269;SDS011;39159;45.634;9.420;2023-12-22T03:09:26;6.10;;;4.07;;
53269;SDS011;39159;45.634;9.420;2023-12-22T03:11:51;6.68;;;3.92;;
53269;SDS011;39159;45.634;9.420;2023-12-22T03:14:19;5.40;;;4.10;;
53269;SDS011;39159;45.634;9.420;2023-12-22T03:16:45;5.50;;;3.97;;
53269;SDS011;39159;45.634;9.420;2023-12-22T03:19:10;5.60;;;3.70;;
53269;SDS011;39159;45.634;9.420;2023-12-22T03:21:36;6.47;;;4.18;;
53269;SDS011;39159;45.634;9.420;2023-12-22T03:24:01;6.32;;;3.70;;
53269;SDS011;39159;45.634;9.420;2023-12-22T03:26:26;4.00;;;2.97;;
53269;SDS011;39159;45.634;9.420;2023-12-22T03:28:52;5.40;;;3.80;;
53269;SDS011;39159;45.634;9.420;2023-12-22T03:31:18;5.00;;;3.03;;
53269;SDS011;39159;45.634;9.420;2023-12-22T03:33:43;2.85;;;1.80;;
53269;SDS011;39159;45.634;9.420;2023-12-22T03:36:08;1.58;;;0.70;;
53269;SDS011;39159;45.634;9.420;2023-12-22T03:38:34;0.50;;;0.50;;
53269;SDS011;39159;45.634;9.420;2023-12-22T03:40:59;0.85;;;0.60;;
53269;SDS011;39159;45.634;9.420;2023-12-22T03:43:25;2.13;;;0.50;;
53269;SDS011;39159;45.634;9.420;2023-12-22T03:45:50;0.60;;;0.60;;
53269;SDS011;39159;45.634;9.420;2023-12-22T03:48:15;0.50;;;0.50;;
53269;SDS011;39159;45.634;9.420;2023-12-22T03:50:41;1.80;;;0.50;;
53269;SDS011;39159;45.634;9.420;2023-12-22T03:53:06;2.03;;;0.55;;
53269;SDS011;39159;45.634;9.420;2023-12-22T03:55:31;0.90;;;0.65;;
53269;SDS011;39159;45.634;9.420;2023-12-22T03:57:57;0.70;;;0.70;;
53269;SDS011;39159;45.634;9.420;2023-12-22T04:00:22;0.60;;;0.60;;
53269;SDS011;39159;45.634;9.420;2023-12-22T04:02:47;0.70;;;0.70;;
53269;SDS011;39159;45.634;9.420;2023-12-22T04:05:13;1.65;;;0.70;;
53269;SDS011;39159;45.634;9.420;2023-12-22T04:07:38;0.65;;;0.65;;
53269;SDS011;39159;45.634;9.420;2023-12-22T04:10:03;1.52;;;0.70;;
53269;SDS011;39159;45.634;9.420;2023-12-22T04:12:29;0.60;;;0.60;;
53269;SDS011;39159;45.634;9.420;2023-12-22T04:14:54;0.73;;;0.70;;
53269;SDS011;39159;45.634;9.420;2023-12-22T04:17:20;0.57;;;0.57;;
53269;SDS011;39159;45.634;9.420;2023-12-22T04:19:45;1.70;;;0.60;;
53269;SDS011;39159;45.634;9.420;2023-12-22T04:22:10;1.98;;;0.70;;
53269;SDS011;39159;45.634;9.420;2023-12-22T04:24:36;0.82;;;0.50;;
53269;SDS011;39159;45.634;9.420;2023-12-22T04:27:01;1.85;;;0.47;;
53269;SDS011;39159;45.634;9.420;2023-12-22T04:29:27;0.60;;;0.60;;
53269;SDS011;39159;45.634;9.420;2023-12-22T04:31:52;0.70;;;0.52;;
53269;SDS011;39159;45.634;9.420;2023-12-22T04:34:17;2.42;;;0.57;;
53269;SDS011;39159;45.634;9.420;2023-12-22T04:36:43;1.20;;;0.70;;
53269;SDS011;39159;45.634;9.420;2023-12-22T04:39:08;0.57;;;0.57;;
53269;SDS011;39159;45.634;9.420;2023-12-22T04:41:33;1.25;;;0.60;;
53269;SDS011;39159;45.634;9.420;2023-12-22T04:43:59;0.60;;;0.60;;
53269;SDS011;39159;45.634;9.420;2023-12-22T04:46:28;0.40;;;0.40;;
53269;SDS011;39159;45.634;9.420;2023-12-22T04:48:54;0.93;;;0.70;;
53269;SDS011;39159;45.634;9.420;2023-12-22T04:51:19;1.42;;;0.60;;
53269;SDS011;39159;45.634;9.420;2023-12-22T04:53:44;0.80;;;0.57;;
53269;SDS011;39159;45.634;9.420;2023-12-22T04:56:10;0.50;;;0.50;;
53269;SDS011;39159;45.634;9.420;2023-12-22T04:58:35;0.68;;;0.65;;
53269;SDS011;39159;45.634;9.420;2023-12-22T05:01:01;2.53;;;0.60;;
53269;SDS011;39159;45.634;9.420;2023-12-22T05:03:26;0.50;;;0.50;;
53269;SDS011;39159;45.634;9.420;2023-12-22T05:05:51;0.60;;;0.60;;
53269;SDS011;39159;45.634;9.420;2023-12-22T05:08:17;0.68;;;0.60;;
53269;SDS011;39159;45.634;9.420;2023-12-22T05:10:42;0.73;;;0.60;;
53269;SDS011;39159;45.634;9.420;2023-12-22T05:13:07;3.22;;;0.60;;
53269;SDS011;39159;45.634;9.420;2023-12-22T05:15:33;0.68;;;0.60;;
53269;SDS011;39159;45.634;9.420;2023-12-22T05:17:58;2.95;;;0.60;;
53269;SDS011;39159;45.634;9.420;2023-12-22T05:20:24;1.02;;;0.60;;
53269;SDS011;39159;45.634;9.420;2023-12-22T05:22:49;0.75;;;0.60;;
53269;SDS011;39159;45.634;9.420;2023-12-22T05:25:14;1.20;;;0.68;;
53269;SDS011;39159;45.634;9.420;2023-12-22T05:27:40;1.17;;;0.60;;
53269;SDS011;39159;45.634;9.420;2023-12-22T05:30:08;1.90;;;0.65;;
53269;SDS011;39159;45.634;9.420;2023-12-22T05:32:33;2.63;;;0.60;;
53269;SDS011;39159;45.634;9.420;2023-12-22T05:34:59;0.73;;;0.68;;
53269;SDS011;39159;45.634;9.420;2023-12-22T05:37:24;4.13;;;1.20;;
53269;SDS011;39159;45.634;9.420;2023-12-22T05:39:49;3.45;;;0.60;;
53269;SDS011;39159;45.634;9.420;2023-12-22T05:42:15;0.47;;;0.47;;
53269;SDS011;39159;45.634;9.420;2023-12-22T05:44:40;0.50;;;0.50;;
53269;SDS011;39159;45.634;9.420;2023-12-22T05:47:06;0.88;;;0.50;;
53269;SDS011;39159;45.634;9.420;2023-12-22T05:49:31;5.55;;;0.65;;
53269;SDS011;39159;45.634;9.420;2023-12-22T05:51:56;0.60;;;0.60;;
53269;SDS011;39159;45.634;9.420;2023-12-22T05:54:22;2.92;;;0.60;;
53269;SDS011;39159;45.634;9.420;2023-12-22T05:56:48;0.40;;;0.40;;
53269;SDS011;39159;45.634;9.420;2023-12-22T05:59:13;0.40;;;0.40;;
53269;SDS011;39159;45.634;9.420;2023-12-22T06:01:39;0.55;;;0.55;;
53269;SDS011;39159;45.634;9.420;2023-12-22T06:04:04;2.65;;;0.57;;
53269;SDS011;39159;45.634;9.420;2023-12-22T06:06:30;5.57;;;0.50;;
53269;SDS011;39159;45.634;9.420;2023-12-22T06:08:56;2.95;;;0.80;;
53269;SDS011;39159;45.634;9.420;2023-12-22T06:11:21;0.98;;;0.90;;
53269;SDS011;39159;45.634;9.420;2023-12-22T06:13:47;3.35;;;1.40;;
53269;SDS011;39159;45.634;9.420;2023-12-22T06:16:13;2.25;;;1.20;;
53269;SDS011;39159;45.634;9.420;2023-12-22T06:18:43;2.67;;;1.20;;
53269;SDS011;39159;45.634;9.420;2023-12-22T06:21:09;1.90;;;1.23;;
53269;SDS011;39159;45.634;9.420;2023-12-22T06:23:35;1.98;;;1.33;;
53269;SDS011;39159;45.634;9.420;2023-12-22T06:26:01;2.40;;;1.40;;
53269;SDS011;39159;45.634;9.420;2023-12-22T06:28:29;1.60;;;1.25;;
53269;SDS011;39159;45.634;9.420;2023-12-22T06:30:55;1.50;;;1.38;;
53269;SDS011;39159;45.634;9.420;2023-12-22T06:33:20;1.55;;;1.13;;
53269;SDS011;39159;45.634;9.420;2023-12-22T06:35:45;4.93;;;1.20;;
53269;SDS011;39159;45.634;9.420;2023-12-22T06:38:11;6.75;;;1.30;;
53269;SDS011;39159;45.634;9.420;2023-12-22T06:40:36;1.75;;;1.10;;
53269;SDS011;39159;45.634;9.420;2023-12-22T06:43:03;1.45;;;1.00;;
53269;SDS011;39159;45.634;9.420;2023-12-22T06:45:29;1.27;;;0.73;;
53269;SDS011;39159;45.634;9.420;2023-12-22T06:47:54;7.03;;;1.10;;
53269;SDS011;39159;45.634;9.420;2023-12-22T06:50:21;0.68;;;0.65;;
53269;SDS011;39159;45.634;9.420;2023-12-22T06:52:46;22.75;;;11.07;;
53269;SDS011;39159;45.634;9.420;2023-12-22T06:55:12;2.78;;;1.70;;
53269;SDS011;39159;45.634;9.420;2023-12-22T06:57:37;1.70;;;1.20;;
53269;SDS011;39159;45.634;9.420;2023-12-22T07:00:03;2.17;;;1.30;;
53269;SDS011;39159;45.634;9.420;2023-12-22T07:02:29;1.63;;;1.10;;
53269;SDS011;39159;45.634;9.420;2023-12-22T07:05:01;6.15;;;1.73;;
53269;SDS011;39159;45.634;9.420;2023-12-22T07:07:50;1.75;;;1.30;;
53269;SDS011;39159;45.634;9.420;2023-12-22T07:10:15;1.35;;;1.13;;
53269;SDS011;39159;45.634;9.420;2023-12-22T07:12:41;1.77;;;0.90;;
53269;SDS011;39159;45.634;9.420;2023-12-22T07:15:07;1.80;;;1.10;;
53269;SDS011;39159;45.634;9.420;2023-12-22T07:17:32;2.08;;;0.90;;
53269;SDS011;39159;45.634;9.420;2023-12-22T07:19:58;3.55;;;1.13;;
53269;SDS011;39159;45.634;9.420;2023-12-22T07:22:24;3.40;;;1.13;;
53269;SDS011;39159;45.634;9.420;2023-12-22T07:24:49;6.70;;;1.08;;
53269;SDS011;39159;45.634;9.420;2023-12-22T07:27:16;1.63;;;0.80;;
53269;SDS011;39159;45.634;9.420;2023-12-22T07:29:42;0.95;;;0.70;;
53269;SDS011;39159;45.634;9.420;2023-12-22T07:32:07;0.75;;;0.70;;
53269;SDS011;39159;45.634;9.420;2023-12-22T07:34:33;3.55;;;0.95;;
53269;SDS011;39159;45.634;9.420;2023-12-22T07:36:58;1.20;;;0.90;;
53269;SDS011;39159;45.634;9.420;2023-12-22T07:39:23;1.17;;;0.55;;
53269;SDS011;39159;45.634;9.420;2023-12-22T07:41:49;2.15;;;0.60;;
53269;SDS011;39159;45.634;9.420;2023-12-22T07:44:14;0.95;;;0.73;;
53269;SDS011;39159;45.634;9.420;2023-12-22T07:46:40;0.57;;;0.50;;
53269;SDS011;39159;45.634;9.420;2023-12-22T07:49:06;0.90;;;0.57;;
53269;SDS011;39159;45.634;9.420;2023-12-22T07:51:31;3.38;;;0.50;;
53269;SDS011;39159;45.634;9.420;2023-12-22T07:53:57;1.33;;;0.70;;
53269;SDS011;39159;45.634;9.420;2023-12-22T07:56:23;1.63;;;0.60;;
53269;SDS011;39159;45.634;9.420;2023-12-22T07:58:48;0.90;;;0.57;;
53269;SDS011;39159;45.634;9.420;2023-12-22T08:01:14;0.50;;;0.50;;
53269;SDS011;39159;45.634;9.420;2023-12-22T08:03:40;1.95;;;0.60;;
53269;SDS011;39159;45.634;9.420;2023-12-22T08:06:06;2.25;;;0.50;;
53269;SDS011;39159;45.634;9.420;2023-12-22T08:08:31;0.55;;;0.55;;
53269;SDS011;39159;45.634;9.420;2023-12-22T08:10:58;1.75;;;0.63;;
53269;SDS011;39159;45.634;9.420;2023-12-22T08:13:24;1.75;;;0.60;;
53269;SDS011;39159;45.634;9.420;2023-12-22T08:15:49;1.70;;;0.70;;
53269;SDS011;39159;45.634;9.420;2023-12-22T08:18:15;1.95;;;0.70;;
53269;SDS011;39159;45.634;9.420;2023-12-22T08:20:40;0.75;;;0.75;;
53269;SDS011;39159;45.634;9.420;2023-12-22T08:23:06;0.70;;;0.70;;
53269;SDS011;39159;45.634;9.420;2023-12-22T08:25:31;0.75;;;0.70;;
53269;SDS011;39159;45.634;9.420;2023-12-22T08:27:57;1.02;;;0.60;;
53269;SDS011;39159;45.634;9.420;2023-12-22T08:30:22;0.50;;;0.50;;
53269;SDS011;39159;45.634;9.420;2023-12-22T08:32:49;1.38;;;0.88;;
53269;SDS011;39159;45.634;9.420;2023-12-22T08:35:15;1.15;;;0.70;;
53269;SDS011;39159;45.634;9.420;2023-12-22T08:37:41;1.05;;;0.60;;
53269;SDS011;39159;45.634;9.420;2023-12-22T08:40:07;1.45;;;0.70;;
53269;SDS011;39159;45.634;9.420;2023-12-22T08:42:32;0.90;;;0.70;;
53269;SDS011;39159;45.634;9.420;2023-12-22T08:44:58;1.73;;;0.60;;
53269;SDS011;39159;45.634;9.420;2023-12-22T08:47:23;0.65;;;0.60;;
53269;SDS011;39159;45.634;9.420;2023-12-22T08:49:50;2.72;;;0.73;;
53269;SDS011;39159;45.634;9.420;2023-12-22T08:52:15;1.50;;;0.60;;
53269;SDS011;39159;45.634;9.420;2023-12-22T08:54:41;0.70;;;0.70;;
53269;SDS011;39159;45.634;9.420;2023-12-22T08:57:06;0.90;;;0.90;;
53269;SDS011;39159;45.634;9.420;2023-12-22T08:59:31;2.75;;;0.80;;
53269;SDS011;39159;45.634;9.420;2023-12-22T09:01:57;2.10;;;0.80;;
53269;SDS011;39159;45.634;9.420;2023-12-22T09:04:22;2.83;;;0.70;;
53269;SDS011;39159;45.634;9.420;2023-12-22T09:06:50;1.38;;;0.80;;
53269;SDS011;39159;45.634;9.420;2023-12-22T09:09:16;1.27;;;0.70;;
53269;SDS011;39159;45.634;9.420;2023-12-22T09:11:41;4.43;;;2.25;;
53269;SDS011;39159;45.634;9.420;2023-12-22T09:14:07;2.97;;;1.40;;
53269;SDS011;39159;45.634;9.420;2023-12-22T09:16:35;1.52;;;1.13;;
53269;SDS011;39159;45.634;9.420;2023-12-22T09:19:02;2.47;;;1.02;;
53269;SDS011;39159;45.634;9.420;2023-12-22T09:21:27;2.17;;;1.30;;
53269;SDS011;39159;45.634;9.420;2023-12-22T09:23:52;1.20;;;0.82;;
53269;SDS011;39159;45.634;9.420;2023-12-22T09:26:18;1.08;;;0.90;;
53269;SDS011;39159;45.634;9.420;2023-12-22T09:28:44;1.65;;;1.00;;
53269;SDS011;39159;45.634;9.420;2023-12-22T09:31:10;1.25;;;0.90;;
53269;SDS011;39159;45.634;9.420;2023-12-22T09:33:37;1.42;;;0.90;;
53269;SDS011;39159;45.634;9.420;2023-12-22T09:36:03;0.80;;;0.80;;
53269;SDS011;39159;45.634;9.420;2023-12-22T09:38:28;1.25;;;0.80;;
53269;SDS011;39159;45.634;9.420;2023-12-22T09:40:54;1.40;;;0.98;;
53269;SDS011;39159;45.634;9.420;2023-12-22T09:43:21;2.25;;;1.35;;
53269;SDS011;39159;45.634;9.420;2023-12-22T09:45:47;1.45;;;1.02;;
53269;SDS011;39159;45.634;9.420;2023-12-22T09:48:14;1.00;;;0.90;;
53269;SDS011;39159;45.634;9.420;2023-12-22T09:50:43;0.90;;;0.80;;
53269;SDS011;39159;45.634;9.420;2023-12-22T09:53:10;3.08;;;0.70;;
53269;SDS011;39159;45.634;9.420;2023-12-22T09:55:37;1.42;;;0.65;;
53269;SDS011;39159;45.634;9.420;2023-12-22T09:58:04;0.60;;;0.60;;
53269;SDS011;39159;45.634;9.420;2023-12-22T10:00:31;0.68;;;0.68;;
53269;SDS011;39159;45.634;9.420;2023-12-22T10:02:57;2.83;;;0.70;;
53269;SDS011;39159;45.634;9.420;2023-12-22T10:05:22;0.80;;;0.80;;
53269;SDS011;39159;45.634;9.420;2023-12-22T10:07:47;1.25;;;0.80;;
53269;SDS011;39159;45.634;9.420;2023-12-22T10:10:14;1.13;;;1.00;;
53269;SDS011;39159;45.634;9.420;2023-12-22T10:12:41;2.22;;;0.70;;
53269;SDS011;39159;45.634;9.420;2023-12-22T10:15:10;0.98;;;0.60;;
53269;SDS011;39159;45.634;9.420;2023-12-22T10:17:37;0.80;;;0.80;;
53269;SDS011;39159;45.634;9.420;2023-12-22T10:20:03;0.93;;;0.80;;
53269;SDS011;39159;45.634;9.420;2023-12-22T10:22:29;3.80;;;1.90;;
53269;SDS011;39159;45.634;9.420;2023-12-22T10:24:54;5.07;;;0.88;;
53269;SDS011;39159;45.634;9.420;2023-12-22T10:27:20;2.85;;;1.83;;
53269;SDS011;39159;45.634;9.420;2023-12-22T10:29:55;0.85;;;0.85;;
53269;SDS011;39159;45.634;9.420;2023-12-22T10:32:21;1.85;;;1.40;;
53269;SDS011;39159;45.634;9.420;2023-12-22T10:34:47;6.60;;;2.03;;
53269;SDS011;39159;45.634;9.420;2023-12-22T10:37:13;3.75;;;2.38;;
53269;SDS011;39159;45.634;9.420;2023-12-22T10:39:39;3.22;;;1.65;;
53269;SDS011;39159;45.634;9.420;2023-12-22T10:42:05;2.20;;;0.98;;
53269;SDS011;39159;45.634;9.420;2023-12-22T10:44:30;2.00;;;1.27;;
53269;SDS011;39159;45.634;9.420;2023-12-22T10:46:56;0.90;;;0.90;;
53269;SDS011;39159;45.634;9.420;2023-12-22T10:49:22;1.52;;;0.85;;
53269;SDS011;39159;45.634;9.420;2023-12-22T10:51:49;2.55;;;1.15;;
53269;SDS011;39159;45.634;9.420;2023-12-22T10:54:15;0.93;;;0.80;;
53269;SDS011;39159;45.634;9.420;2023-12-22T10:56:41;1.90;;;0.65;;
53269;SDS011;39159;45.634;9.420;2023-12-22T10:59:07;0.80;;;0.80;;
53269;SDS011;39159;45.634;9.420;2023-12-22T11:01:33;0.90;;;0.80;;
53269;SDS011;39159;45.634;9.420;2023-12-22T11:04:08;5.15;;;0.90;;
53269;SDS011;39159;45.634;9.420;2023-12-22T11:06:38;0.75;;;0.73;;
53269;SDS011;39159;45.634;9.420;2023-12-22T11:09:07;2.35;;;1.10;;
53269;SDS011;39159;45.634;9.420;2023-12-22T11:11:37;0.60;;;0.52;;
53269;SDS011;39159;45.634;9.420;2023-12-22T11:14:04;0.65;;;0.65;;
53269;SDS011;39159;45.634;9.420;2023-12-22T11:16:31;1.88;;;0.55;;
53269;SDS011;39159;45.634;9.420;2023-12-22T11:18:58;1.40;;;0.60;;
53269;SDS011;39159;45.634;9.420;2023-12-22T11:21:24;5.28;;;0.70;;
53269;SDS011;39159;45.634;9.420;2023-12-22T11:23:51;2.33;;;0.73;;
53269;SDS011;39159;45.634;9.420;2023-12-22T11:26:17;7.43;;;1.13;;
53269;SDS011;39159;45.634;9.420;2023-12-22T11:28:47;0.52;;;0.52;;
53269;SDS011;39159;45.634;9.420;2023-12-22T11:31:19;0.50;;;0.50;;
53269;SDS011;39159;45.634;9.420;2023-12-22T11:33:49;0.73;;;0.60;;
53269;SDS011;39159;45.634;9.420;2023-12-22T11:36:16;0.60;;;0.60;;
53269;SDS011;39159;45.634;9.420;2023-12-22T11:38:45;0.68;;;0.50;;
53269;SDS011;39159;45.634;9.420;2023-12-22T11:41:19;1.63;;;0.70;;
53269;SDS011;39159;45.634;9.420;2023-12-22T11:43:49;0.70;;;0.50;;
53269;SDS011;39159;45.634;9.420;2023-12-22T11:46:16;0.63;;;0.63;;
53269;SDS011;39159;45.634;9.420;2023-12-22T11:48:49;4.43;;;0.68;;
53269;SDS011;39159;45.634;9.420;2023-12-22T11:51:16;2.05;;;0.60;;
53269;SDS011;39159;45.634;9.420;2023-12-22T11:53:42;2.03;;;0.68;;
53269;SDS011;39159;45.634;9.420;2023-12-22T11:56:09;0.63;;;0.63;;
53269;SDS011;39159;45.634;9.420;2023-12-22T11:58:38;1.55;;;0.80;;
53269;SDS011;39159;45.634;9.420;2023-12-22T12:01:23;0.60;;;0.60;;
53269;SDS011;39159;45.634;9.420;2023-12-22T12:08:52;0.77;;;0.60;;
53269;SDS011;39159;45.634;9.420;2023-12-22T12:11:18;2.30;;;0.50;;
53269;SDS011;39159;45.634;9.420;2023-12-22T12:13:45;0.70;;;0.55;;
53269;SDS011;39159;45.634;9.420;2023-12-22T12:16:11;0.60;;;0.60;;
53269;SDS011;39159;45.634;9.420;2023-12-22T12:18:38;1.05;;;0.60;;
53269;SDS011;39159;45.634;9.420;2023-12-22T12:21:05;0.70;;;0.68;;
53269;SDS011;39159;45.634;9.420;2023-12-22T12:23:32;0.95;;;0.60;;
53269;SDS011;39159;45.634;9.420;2023-12-22T12:25:58;0.60;;;0.60;;
53269;SDS011;39159;45.634;9.420;2023-12-22T12:28:33;0.60;;;0.60;;
53269;SDS011;39159;45.634;9.420;2023-12-22T12:31:03;0.63;;;0.63;;
53269;SDS011;39159;45.634;9.420;2023-12-22T12:33:30;0.90;;;0.60;;
53269;SDS011;39159;45.634;9.420;2023-12-22T12:35:57;0.60;;;0.60;;
53269;SDS011;39159;45.634;9.420;2023-12-22T12:39:08;0.60;;;0.60;;
53269;SDS011;39159;45.634;9.420;2023-12-22T12:41:30;0.60;;;0.60;;
53269;SDS011;39159;45.634;9.420;2023-12-22T12:43:58;0.70;;;0.70;;
53269;SDS011;39159;45.634;9.420;2023-12-22T12:46:42;0.60;;;0.60;;
53269;SDS011;39159;45.634;9.420;2023-12-22T12:49:09;0.52;;;0.52;;
53269;SDS011;39159;45.634;9.420;2023-12-22T12:51:41;0.52;;;0.52;;
53269;SDS011;39159;45.634;9.420;2023-12-22T12:54:08;0.95;;;0.50;;
53269;SDS011;39159;45.634;9.420;2023-12-22T12:56:40;0.57;;;0.50;;
53269;SDS011;39159;45.634;9.420;2023-12-22T12:59:07;0.70;;;0.70;;
53269;SDS011;39159;45.634;9.420;2023-12-22T13:01:39;1.50;;;0.50;;
53269;SDS011;39159;45.634;9.420;2023-12-22T13:04:05;1.88;;;0.60;;
53269;SDS011;39159;45.634;9.420;2023-12-22T13:06:31;1.73;;;0.80;;
53269;SDS011;39159;45.634;9.420;2023-12-22T13:08:57;0.43;;;0.43;;
53269;SDS011;39159;45.634;9.420;2023-12-22T13:11:23;0.60;;;0.60;;
53269;SDS011;39159;45.634;9.420;2023-12-22T13:13:51;1.23;;;0.75;;
53269;SDS011;39159;45.634;9.420;2023-12-22T13:16:20;0.93;;;0.50;;
53269;SDS011;39159;45.634;9.420;2023-12-22T13:18:47;1.02;;;0.70;;
53269;SDS011;39159;45.634;9.420;2023-12-22T13:21:13;0.93;;;0.63;;
53269;SDS011;39159;45.634;9.420;2023-12-22T13:23:39;0.65;;;0.65;;
53269;SDS011;39159;45.634;9.420;2023-12-22T13:26:05;0.50;;;0.50;;
53269;SDS011;39159;45.634;9.420;2023-12-22T13:28:30;0.70;;;0.70;;
53269;SDS011;39159;45.634;9.420;2023-12-22T13:30:55;0.55;;;0.55;;
53269;SDS011;39159;45.634;9.420;2023-12-22T13:33:21;1.95;;;0.82;;
53269;SDS011;39159;45.634;9.420;2023-12-22T13:35:47;1.02;;;0.60;;
53269;SDS011;39159;45.634;9.420;2023-12-22T13:38:13;0.65;;;0.65;;
53269;SDS011;39159;45.634;9.420;2023-12-22T13:40:39;0.80;;;0.80;;
53269;SDS011;39159;45.634;9.420;2023-12-22T13:43:10;1.27;;;0.80;;
53269;SDS011;39159;45.634;9.420;2023-12-22T13:45:35;1.17;;;0.80;;
53269;SDS011;39159;45.634;9.420;2023-12-22T13:48:01;0.50;;;0.50;;
53269;SDS011;39159;45.634;9.420;2023-12-22T13:50:27;0.52;;;0.52;;
53269;SDS011;39159;45.634;9.420;2023-12-22T13:52:52;0.50;;;0.50;;
53269;SDS011;39159;45.634;9.420;2023-12-22T13:55:18;0.60;;;0.60;;
53269;SDS011;39159;45.634;9.420;2023-12-22T13:57:44;0.50;;;0.50;;
53269;SDS011;39159;45.634;9.420;2023-12-22T14:02:47;0.50;;;0.50;;
53269;SDS011;39159;45.634;9.420;2023-12-22T14:05:20;0.50;;;0.50;;
53269;SDS011;39159;45.634;9.420;2023-12-22T14:07:45;0.60;;;0.60;;
53269;SDS011;39159;45.634;9.420;2023-12-22T14:10:12;0.60;;;0.60;;
53269;SDS011;39159;45.634;9.420;2023-12-22T14:12:38;0.60;;;0.60;;
53269;SDS011;39159;45.634;9.420;2023-12-22T14:15:07;0.47;;;0.47;;
53269;SDS011;39159;45.634;9.420;2023-12-22T14:17:33;0.60;;;0.60;;
53269;SDS011;39159;45.634;9.420;2023-12-22T14:19:59;0.70;;;0.70;;
53269;SDS011;39159;45.634;9.420;2023-12-22T14:22:24;1.58;;;0.60;;
53269;SDS011;39159;45.634;9.420;2023-12-22T14:24:51;2.78;;;0.80;;
53269;SDS011;39159;45.634;9.420;2023-12-22T14:27:16;0.60;;;0.60;;
53269;SDS011;39159;45.634;9.420;2023-12-22T14:29:44;0.75;;;0.75;;
53269;SDS011;39159;45.634;9.420;2023-12-22T14:32:10;0.60;;;0.60;;
53269;SDS011;39159;45.634;9.420;2023-12-22T14:34:40;1.00;;;0.63;;
53269;SDS011;39159;45.634;9.420;2023-12-22T14:37:06;1.42;;;0.73;;
53269;SDS011;39159;45.634;9.420;2023-12-22T14:39:31;0.80;;;0.80;;
53269;SDS011;39159;45.634;9.420;2023-12-22T14:41:58;0.70;;;0.70;;
53269;SDS011;39159;45.634;9.420;2023-12-22T14:44:24;0.70;;;0.70;;
53269;SDS011;39159;45.634;9.420;2023-12-22T14:46:49;2.03;;;0.80;;
53269;SDS011;39159;45.634;9.420;2023-12-22T14:49:14;1.10;;;0.90;;
53269;SDS011;39159;45.634;9.420;2023-12-22T14:51:40;0.70;;;0.70;;
53269;SDS011;39159;45.634;9.420;2023-12-22T14:54:06;0.70;;;0.70;;
53269;SDS011;39159;45.634;9.420;2023-12-22T14:56:32;1.38;;;0.65;;